sensor_id;sensor_type;location;lat;lon;timestamp;P1;durP1;ratioP1;P2;durP2;ratioP2
70150;SDS011;57517;43.562;19.540;2022-12-07T00:00:53;142.93;;;103.63;;
70150;SDS011;57517;43.562;19.540;2022-12-07T00:03:19;132.93;;;99.75;;
70150;SDS011;57517;43.562;19.540;2022-12-07T00:05:45;114.55;;;84.35;;
70150;SDS011;57517;43.562;19.540;2022-12-07T00:08:11;102.00;;;77.15;;
70150;SDS011;57517;43.562;19.540;2022-12-07T00:10:37;108.85;;;77.03;;
70150;SDS011;57517;43.562;19.540;2022-12-07T00:13:02;111.38;;;82.97;;
70150;SDS011;57517;43.562;19.540;2022-12-07T00:15:28;115.75;;;84.57;;
70150;SDS011;57517;43.562;19.540;2022-12-07T00:17:54;129.30;;;91.20;;
70150;SDS011;57517;43.562;19.540;2022-12-07T00:20:20;129.70;;;96.38;;
70150;SDS011;57517;43.562;19.540;2022-12-07T00:22:45;126.00;;;95.60;;
70150;SDS011;57517;43.562;19.540;2022-12-07T00:25:11;137.05;;;102.22;;
70150;SDS011;57517;43.562;19.540;2022-12-07T00:27:37;143.38;;;100.20;;
70150;SDS011;57517;43.562;19.540;2022-12-07T00:30:03;128.20;;;97.15;;
70150;SDS011;57517;43.562;19.540;2022-12-07T00:32:29;133.18;;;97.85;;
70150;SDS011;57517;43.562;19.540;2022-12-07T00:34:55;141.48;;;98.68;;
70150;SDS011;57517;43.562;19.540;2022-12-07T00:37:21;128.15;;;95.65;;
70150;SDS011;57517;43.562;19.540;2022-12-07T00:39:46;136.00;;;91.90;;
70150;SDS011;57517;43.562;19.540;2022-12-07T00:42:12;118.05;;;84.35;;
70150;SDS011;57517;43.562;19.540;2022-12-07T00:44:38;113.57;;;83.35;;
70150;SDS011;57517;43.562;19.540;2022-12-07T00:47:04;116.65;;;83.63;;
70150;SDS011;57517;43.562;19.540;2022-12-07T00:49:29;105.88;;;79.03;;
70150;SDS011;57517;43.562;19.540;2022-12-07T00:51:55;117.25;;;85.50;;
70150;SDS011;57517;43.562;19.540;2022-12-07T00:54:21;122.57;;;89.95;;
70150;SDS011;57517;43.562;19.540;2022-12-07T00:56:47;122.70;;;90.25;;
70150;SDS011;57517;43.562;19.540;2022-12-07T00:59:13;126.85;;;94.53;;
70150;SDS011;57517;43.562;19.540;2022-12-07T01:01:41;125.95;;;96.95;;
70150;SDS011;57517;43.562;19.540;2022-12-07T01:04:07;135.40;;;95.13;;
70150;SDS011;57517;43.562;19.540;2022-12-07T01:06:33;122.95;;;90.97;;
70150;SDS011;57517;43.562;19.540;2022-12-07T01:08:59;132.10;;;94.18;;
70150;SDS011;57517;43.562;19.540;2022-12-07T01:11:27;127.70;;;91.28;;
70150;SDS011;57517;43.562;19.540;2022-12-07T01:13:55;129.30;;;90.18;;
70150;SDS011;57517;43.562;19.540;2022-12-07T01:16:23;121.07;;;88.72;;
70150;SDS011;57517;43.562;19.540;2022-12-07T01:18:51;127.35;;;90.80;;
70150;SDS011;57517;43.562;19.540;2022-12-07T01:21:19;124.10;;;88.38;;
70150;SDS011;57517;43.562;19.540;2022-12-07T01:23:46;112.57;;;80.35;;
70150;SDS011;57517;43.562;19.540;2022-12-07T01:26:13;100.50;;;77.07;;
70150;SDS011;57517;43.562;19.540;2022-12-07T01:28:41;108.28;;;76.90;;
70150;SDS011;57517;43.562;19.540;2022-12-07T01:31:08;102.65;;;72.15;;
70150;SDS011;57517;43.562;19.540;2022-12-07T01:33:43;99.50;;;70.05;;
70150;SDS011;57517;43.562;19.540;2022-12-07T01:36:17;80.97;;;60.72;;
70150;SDS011;57517;43.562;19.540;2022-12-07T01:38:45;90.43;;;64.82;;
70150;SDS011;57517;43.562;19.540;2022-12-07T01:41:12;95.78;;;68.28;;
70150;SDS011;57517;43.562;19.540;2022-12-07T01:46:42;90.60;;;65.80;;
70150;SDS011;57517;43.562;19.540;2022-12-07T01:49:11;89.05;;;66.70;;
70150;SDS011;57517;43.562;19.540;2022-12-07T01:51:43;91.38;;;67.07;;
70150;SDS011;57517;43.562;19.540;2022-12-07T01:54:11;84.32;;;62.95;;
70150;SDS011;57517;43.562;19.540;2022-12-07T01:56:38;90.13;;;63.22;;
70150;SDS011;57517;43.562;19.540;2022-12-07T01:59:08;80.18;;;57.22;;
70150;SDS011;57517;43.562;19.540;2022-12-07T02:01:34;86.57;;;58.97;;
70150;SDS011;57517;43.562;19.540;2022-12-07T02:03:59;80.53;;;56.92;;
70150;SDS011;57517;43.562;19.540;2022-12-07T02:06:25;81.53;;;60.15;;
70150;SDS011;57517;43.562;19.540;2022-12-07T02:08:52;85.10;;;59.55;;
70150;SDS011;57517;43.562;19.540;2022-12-07T02:11:18;81.88;;;56.25;;
70150;SDS011;57517;43.562;19.540;2022-12-07T02:13:45;83.05;;;57.95;;
70150;SDS011;57517;43.562;19.540;2022-12-07T02:16:47;75.00;;;54.15;;
70150;SDS011;57517;43.562;19.540;2022-12-07T02:21:58;74.65;;;52.55;;
70150;SDS011;57517;43.562;19.540;2022-12-07T02:30:27;69.38;;;48.80;;
70150;SDS011;57517;43.562;19.540;2022-12-07T02:33:01;70.72;;;48.55;;
70150;SDS011;57517;43.562;19.540;2022-12-07T02:38:18;72.38;;;50.70;;
70150;SDS011;57517;43.562;19.540;2022-12-07T02:40:52;69.93;;;51.80;;
70150;SDS011;57517;43.562;19.540;2022-12-07T02:43:24;80.45;;;54.53;;
70150;SDS011;57517;43.562;19.540;2022-12-07T02:45:53;79.38;;;54.60;;
70150;SDS011;57517;43.562;19.540;2022-12-07T02:48:26;68.55;;;49.30;;
70150;SDS011;57517;43.562;19.540;2022-12-07T02:50:53;66.38;;;47.83;;
70150;SDS011;57517;43.562;19.540;2022-12-07T02:53:32;79.55;;;52.78;;
70150;SDS011;57517;43.562;19.540;2022-12-07T03:04:52;74.88;;;55.42;;
70150;SDS011;57517;43.562;19.540;2022-12-07T03:07:39;85.35;;;60.25;;
70150;SDS011;57517;43.562;19.540;2022-12-07T03:10:28;87.80;;;59.17;;
70150;SDS011;57517;43.562;19.540;2022-12-07T03:18:07;75.97;;;50.47;;
70150;SDS011;57517;43.562;19.540;2022-12-07T03:20:36;73.18;;;48.33;;
70150;SDS011;57517;43.562;19.540;2022-12-07T03:23:07;68.35;;;45.22;;
70150;SDS011;57517;43.562;19.540;2022-12-07T03:25:35;70.90;;;48.38;;
70150;SDS011;57517;43.562;19.540;2022-12-07T03:28:06;79.45;;;50.65;;
70150;SDS011;57517;43.562;19.540;2022-12-07T03:30:47;78.68;;;54.90;;
70150;SDS011;57517;43.562;19.540;2022-12-07T03:33:25;77.38;;;54.72;;
70150;SDS011;57517;43.562;19.540;2022-12-07T03:38:54;91.82;;;56.80;;
70150;SDS011;57517;43.562;19.540;2022-12-07T03:41:39;84.30;;;57.22;;
70150;SDS011;57517;43.562;19.540;2022-12-07T03:44:05;73.97;;;51.80;;
70150;SDS011;57517;43.562;19.540;2022-12-07T03:51:46;72.53;;;49.05;;
70150;SDS011;57517;43.562;19.540;2022-12-07T03:54:28;61.40;;;46.03;;
70150;SDS011;57517;43.562;19.540;2022-12-07T03:57:15;70.50;;;47.10;;
70150;SDS011;57517;43.562;19.540;2022-12-07T03:59:42;73.85;;;47.45;;
70150;SDS011;57517;43.562;19.540;2022-12-07T04:02:08;78.38;;;50.05;;
70150;SDS011;57517;43.562;19.540;2022-12-07T04:04:37;66.13;;;47.95;;
70150;SDS011;57517;43.562;19.540;2022-12-07T04:07:04;72.78;;;48.05;;
70150;SDS011;57517;43.562;19.540;2022-12-07T04:09:30;73.55;;;50.28;;
70150;SDS011;57517;43.562;19.540;2022-12-07T04:11:56;75.57;;;50.58;;
70150;SDS011;57517;43.562;19.540;2022-12-07T04:14:22;84.38;;;55.25;;
70150;SDS011;57517;43.562;19.540;2022-12-07T04:16:49;75.38;;;51.92;;
70150;SDS011;57517;43.562;19.540;2022-12-07T04:19:22;88.05;;;59.38;;
70150;SDS011;57517;43.562;19.540;2022-12-07T04:21:50;79.72;;;55.53;;
70150;SDS011;57517;43.562;19.540;2022-12-07T04:24:16;82.45;;;58.80;;
70150;SDS011;57517;43.562;19.540;2022-12-07T04:26:42;82.28;;;57.45;;
70150;SDS011;57517;43.562;19.540;2022-12-07T04:29:08;87.40;;;61.53;;
70150;SDS011;57517;43.562;19.540;2022-12-07T04:31:35;91.05;;;59.83;;
70150;SDS011;57517;43.562;19.540;2022-12-07T04:34:01;89.45;;;61.83;;
70150;SDS011;57517;43.562;19.540;2022-12-07T04:36:27;95.80;;;62.05;;
70150;SDS011;57517;43.562;19.540;2022-12-07T04:38:53;91.13;;;62.30;;
70150;SDS011;57517;43.562;19.540;2022-12-07T04:41:20;87.88;;;60.08;;
70150;SDS011;57517;43.562;19.540;2022-12-07T04:43:59;86.43;;;59.50;;
70150;SDS011;57517;43.562;19.540;2022-12-07T04:46:27;89.05;;;61.60;;
70150;SDS011;57517;43.562;19.540;2022-12-07T04:48:53;100.85;;;61.05;;
70150;SDS011;57517;43.562;19.540;2022-12-07T04:51:24;90.50;;;59.30;;
70150;SDS011;57517;43.562;19.540;2022-12-07T04:53:51;86.38;;;56.83;;
70150;SDS011;57517;43.562;19.540;2022-12-07T04:56:18;79.07;;;54.72;;
70150;SDS011;57517;43.562;19.540;2022-12-07T04:58:45;74.18;;;48.10;;
70150;SDS011;57517;43.562;19.540;2022-12-07T05:01:11;66.88;;;45.88;;
70150;SDS011;57517;43.562;19.540;2022-12-07T05:03:38;68.82;;;46.20;;
70150;SDS011;57517;43.562;19.540;2022-12-07T05:06:04;76.88;;;49.28;;
70150;SDS011;57517;43.562;19.540;2022-12-07T05:08:31;72.90;;;47.15;;
70150;SDS011;57517;43.562;19.540;2022-12-07T05:10:57;71.75;;;48.53;;
70150;SDS011;57517;43.562;19.540;2022-12-07T05:13:24;73.57;;;49.47;;
70150;SDS011;57517;43.562;19.540;2022-12-07T05:15:49;74.97;;;48.35;;
70150;SDS011;57517;43.562;19.540;2022-12-07T05:18:15;89.38;;;52.42;;
70150;SDS011;57517;43.562;19.540;2022-12-07T05:20:41;76.93;;;52.38;;
70150;SDS011;57517;43.562;19.540;2022-12-07T05:23:07;76.97;;;52.28;;
70150;SDS011;57517;43.562;19.540;2022-12-07T05:25:34;78.88;;;52.85;;
70150;SDS011;57517;43.562;19.540;2022-12-07T05:27:59;73.38;;;52.42;;
70150;SDS011;57517;43.562;19.540;2022-12-07T05:30:25;78.13;;;48.85;;
70150;SDS011;57517;43.562;19.540;2022-12-07T05:32:52;77.43;;;53.38;;
70150;SDS011;57517;43.562;19.540;2022-12-07T05:35:18;76.18;;;51.65;;
70150;SDS011;57517;43.562;19.540;2022-12-07T05:37:44;88.38;;;55.80;;
70150;SDS011;57517;43.562;19.540;2022-12-07T05:40:11;82.18;;;55.28;;
70150;SDS011;57517;43.562;19.540;2022-12-07T05:42:38;86.13;;;58.30;;
70150;SDS011;57517;43.562;19.540;2022-12-07T05:45:04;76.20;;;53.17;;
70150;SDS011;57517;43.562;19.540;2022-12-07T05:47:30;76.35;;;51.60;;
70150;SDS011;57517;43.562;19.540;2022-12-07T05:49:56;76.45;;;52.25;;
70150;SDS011;57517;43.562;19.540;2022-12-07T05:52:22;64.63;;;47.08;;
70150;SDS011;57517;43.562;19.540;2022-12-07T05:54:48;65.32;;;46.58;;
70150;SDS011;57517;43.562;19.540;2022-12-07T05:57:14;61.55;;;44.20;;
70150;SDS011;57517;43.562;19.540;2022-12-07T05:59:40;70.45;;;51.25;;
70150;SDS011;57517;43.562;19.540;2022-12-07T06:02:07;71.00;;;50.13;;
70150;SDS011;57517;43.562;19.540;2022-12-07T06:04:37;61.35;;;47.25;;
70150;SDS011;57517;43.562;19.540;2022-12-07T06:07:07;67.35;;;48.75;;
70150;SDS011;57517;43.562;19.540;2022-12-07T06:09:34;70.68;;;52.50;;
70150;SDS011;57517;43.562;19.540;2022-12-07T06:12:00;77.43;;;53.97;;
70150;SDS011;57517;43.562;19.540;2022-12-07T06:14:45;90.80;;;58.05;;
70150;SDS011;57517;43.562;19.540;2022-12-07T06:17:11;87.13;;;60.00;;
70150;SDS011;57517;43.562;19.540;2022-12-07T06:19:37;94.88;;;61.83;;
70150;SDS011;57517;43.562;19.540;2022-12-07T06:22:04;90.53;;;61.03;;
70150;SDS011;57517;43.562;19.540;2022-12-07T06:24:30;89.93;;;60.72;;
70150;SDS011;57517;43.562;19.540;2022-12-07T06:26:57;94.13;;;60.72;;
70150;SDS011;57517;43.562;19.540;2022-12-07T06:29:23;80.38;;;55.75;;
70150;SDS011;57517;43.562;19.540;2022-12-07T06:31:49;96.68;;;60.90;;
70150;SDS011;57517;43.562;19.540;2022-12-07T06:34:16;77.53;;;51.85;;
70150;SDS011;57517;43.562;19.540;2022-12-07T06:36:44;83.03;;;55.33;;
70150;SDS011;57517;43.562;19.540;2022-12-07T06:39:11;66.22;;;50.63;;
70150;SDS011;57517;43.562;19.540;2022-12-07T06:41:37;82.07;;;57.70;;
70150;SDS011;57517;43.562;19.540;2022-12-07T06:44:04;74.20;;;55.65;;
70150;SDS011;57517;43.562;19.540;2022-12-07T06:46:30;49.00;;;37.17;;
70150;SDS011;57517;43.562;19.540;2022-12-07T06:48:56;28.48;;;21.52;;
70150;SDS011;57517;43.562;19.540;2022-12-07T06:51:22;21.75;;;15.88;;
70150;SDS011;57517;43.562;19.540;2022-12-07T06:53:48;19.50;;;14.38;;
70150;SDS011;57517;43.562;19.540;2022-12-07T06:56:14;23.98;;;17.40;;
70150;SDS011;57517;43.562;19.540;2022-12-07T06:58:40;21.73;;;17.13;;
70150;SDS011;57517;43.562;19.540;2022-12-07T07:01:10;34.88;;;26.27;;
70150;SDS011;57517;43.562;19.540;2022-12-07T07:03:37;94.85;;;73.20;;
70150;SDS011;57517;43.562;19.540;2022-12-07T07:06:03;88.90;;;68.22;;
70150;SDS011;57517;43.562;19.540;2022-12-07T07:08:30;83.82;;;63.65;;
70150;SDS011;57517;43.562;19.540;2022-12-07T07:10:56;68.57;;;49.72;;
70150;SDS011;57517;43.562;19.540;2022-12-07T07:13:22;102.07;;;75.75;;
70150;SDS011;57517;43.562;19.540;2022-12-07T07:15:47;62.28;;;47.33;;
70150;SDS011;57517;43.562;19.540;2022-12-07T07:18:13;47.58;;;32.78;;
70150;SDS011;57517;43.562;19.540;2022-12-07T07:20:39;47.60;;;38.42;;
70150;SDS011;57517;43.562;19.540;2022-12-07T07:23:05;45.97;;;35.80;;
70150;SDS011;57517;43.562;19.540;2022-12-07T07:25:32;48.83;;;39.88;;
70150;SDS011;57517;43.562;19.540;2022-12-07T07:27:57;42.03;;;33.78;;
70150;SDS011;57517;43.562;19.540;2022-12-07T07:30:24;42.33;;;32.25;;
70150;SDS011;57517;43.562;19.540;2022-12-07T07:32:50;44.67;;;33.47;;
70150;SDS011;57517;43.562;19.540;2022-12-07T07:35:16;42.58;;;34.25;;
70150;SDS011;57517;43.562;19.540;2022-12-07T07:37:42;42.28;;;32.03;;
70150;SDS011;57517;43.562;19.540;2022-12-07T07:40:08;43.13;;;32.72;;
70150;SDS011;57517;43.562;19.540;2022-12-07T07:42:35;45.08;;;34.90;;
70150;SDS011;57517;43.562;19.540;2022-12-07T07:45:01;43.10;;;34.45;;
70150;SDS011;57517;43.562;19.540;2022-12-07T07:47:26;43.17;;;31.92;;
70150;SDS011;57517;43.562;19.540;2022-12-07T07:49:54;38.10;;;29.13;;
70150;SDS011;57517;43.562;19.540;2022-12-07T07:52:19;39.20;;;28.98;;
70150;SDS011;57517;43.562;19.540;2022-12-07T07:54:45;35.90;;;25.40;;
70150;SDS011;57517;43.562;19.540;2022-12-07T07:57:11;41.80;;;31.10;;
70150;SDS011;57517;43.562;19.540;2022-12-07T07:59:37;47.83;;;33.90;;
70150;SDS011;57517;43.562;19.540;2022-12-07T08:02:02;43.13;;;34.08;;
70150;SDS011;57517;43.562;19.540;2022-12-07T08:04:28;43.60;;;32.55;;
70150;SDS011;57517;43.562;19.540;2022-12-07T08:06:54;49.45;;;33.83;;
70150;SDS011;57517;43.562;19.540;2022-12-07T08:09:20;44.40;;;33.90;;
70150;SDS011;57517;43.562;19.540;2022-12-07T08:11:45;43.70;;;34.17;;
70150;SDS011;57517;43.562;19.540;2022-12-07T08:14:11;41.10;;;32.75;;
70150;SDS011;57517;43.562;19.540;2022-12-07T08:16:37;38.83;;;30.40;;
70150;SDS011;57517;43.562;19.540;2022-12-07T08:19:04;50.30;;;41.55;;
70150;SDS011;57517;43.562;19.540;2022-12-07T08:21:30;51.80;;;41.40;;
70150;SDS011;57517;43.562;19.540;2022-12-07T08:23:56;49.53;;;40.65;;
70150;SDS011;57517;43.562;19.540;2022-12-07T08:26:22;45.50;;;35.10;;
70150;SDS011;57517;43.562;19.540;2022-12-07T08:28:48;36.55;;;30.05;;
70150;SDS011;57517;43.562;19.540;2022-12-07T08:31:15;42.65;;;32.10;;
70150;SDS011;57517;43.562;19.540;2022-12-07T08:33:42;45.15;;;36.88;;
70150;SDS011;57517;43.562;19.540;2022-12-07T08:36:11;43.25;;;34.72;;
70150;SDS011;57517;43.562;19.540;2022-12-07T08:38:38;43.22;;;33.50;;
70150;SDS011;57517;43.562;19.540;2022-12-07T08:41:05;48.78;;;36.70;;
70150;SDS011;57517;43.562;19.540;2022-12-07T08:43:32;40.15;;;34.63;;
70150;SDS011;57517;43.562;19.540;2022-12-07T08:49:04;42.97;;;33.40;;
70150;SDS011;57517;43.562;19.540;2022-12-07T08:51:36;49.67;;;36.85;;
70150;SDS011;57517;43.562;19.540;2022-12-07T08:54:04;37.65;;;29.73;;
70150;SDS011;57517;43.562;19.540;2022-12-07T08:56:34;45.00;;;36.42;;
70150;SDS011;57517;43.562;19.540;2022-12-07T08:59:01;41.47;;;31.95;;
70150;SDS011;57517;43.562;19.540;2022-12-07T09:01:28;42.08;;;33.92;;
70150;SDS011;57517;43.562;19.540;2022-12-07T09:03:54;38.15;;;30.42;;
70150;SDS011;57517;43.562;19.540;2022-12-07T09:06:20;44.80;;;35.13;;
70150;SDS011;57517;43.562;19.540;2022-12-07T09:08:47;31.65;;;23.52;;
70150;SDS011;57517;43.562;19.540;2022-12-07T09:11:15;28.83;;;23.55;;
70150;SDS011;57517;43.562;19.540;2022-12-07T09:13:41;29.98;;;21.80;;
70150;SDS011;57517;43.562;19.540;2022-12-07T09:16:07;27.58;;;20.63;;
70150;SDS011;57517;43.562;19.540;2022-12-07T09:18:33;28.23;;;22.15;;
70150;SDS011;57517;43.562;19.540;2022-12-07T09:20:58;31.85;;;26.55;;
70150;SDS011;57517;43.562;19.540;2022-12-07T09:23:24;33.45;;;27.52;;
70150;SDS011;57517;43.562;19.540;2022-12-07T09:25:50;37.75;;;31.50;;
70150;SDS011;57517;43.562;19.540;2022-12-07T09:28:16;35.15;;;29.35;;
70150;SDS011;57517;43.562;19.540;2022-12-07T09:30:45;36.63;;;28.08;;
70150;SDS011;57517;43.562;19.540;2022-12-07T09:33:12;46.70;;;36.22;;
70150;SDS011;57517;43.562;19.540;2022-12-07T09:35:43;46.47;;;35.97;;
70150;SDS011;57517;43.562;19.540;2022-12-07T09:38:10;42.13;;;33.08;;
70150;SDS011;57517;43.562;19.540;2022-12-07T09:40:37;51.25;;;39.72;;
70150;SDS011;57517;43.562;19.540;2022-12-07T09:43:02;51.25;;;40.95;;
70150;SDS011;57517;43.562;19.540;2022-12-07T09:45:31;61.47;;;49.75;;
70150;SDS011;57517;43.562;19.540;2022-12-07T09:48:00;51.38;;;41.90;;
70150;SDS011;57517;43.562;19.540;2022-12-07T09:50:28;50.78;;;41.90;;
70150;SDS011;57517;43.562;19.540;2022-12-07T09:52:56;48.75;;;38.63;;
70150;SDS011;57517;43.562;19.540;2022-12-07T09:55:49;48.72;;;37.47;;
70150;SDS011;57517;43.562;19.540;2022-12-07T09:58:24;36.85;;;30.10;;
70150;SDS011;57517;43.562;19.540;2022-12-07T10:01:13;30.27;;;24.45;;
70150;SDS011;57517;43.562;19.540;2022-12-07T10:03:48;34.85;;;27.25;;
70150;SDS011;57517;43.562;19.540;2022-12-07T10:06:18;30.13;;;22.70;;
70150;SDS011;57517;43.562;19.540;2022-12-07T10:08:44;28.30;;;21.23;;
70150;SDS011;57517;43.562;19.540;2022-12-07T10:11:10;31.42;;;25.67;;
70150;SDS011;57517;43.562;19.540;2022-12-07T10:13:40;31.13;;;24.00;;
70150;SDS011;57517;43.562;19.540;2022-12-07T10:16:31;29.88;;;23.63;;
70150;SDS011;57517;43.562;19.540;2022-12-07T10:19:38;26.67;;;21.48;;
70150;SDS011;57517;43.562;19.540;2022-12-07T10:24:34;29.23;;;20.88;;
70150;SDS011;57517;43.562;19.540;2022-12-07T10:27:02;28.67;;;22.52;;
70150;SDS011;57517;43.562;19.540;2022-12-07T10:29:32;26.88;;;22.48;;
70150;SDS011;57517;43.562;19.540;2022-12-07T10:32:05;26.55;;;21.85;;
70150;SDS011;57517;43.562;19.540;2022-12-07T10:34:40;32.72;;;25.23;;
70150;SDS011;57517;43.562;19.540;2022-12-07T10:42:20;27.37;;;21.07;;
70150;SDS011;57517;43.562;19.540;2022-12-07T10:44:47;34.33;;;23.67;;
70150;SDS011;57517;43.562;19.540;2022-12-07T10:47:25;34.65;;;26.38;;
70150;SDS011;57517;43.562;19.540;2022-12-07T10:51:01;30.52;;;23.48;;
70150;SDS011;57517;43.562;19.540;2022-12-07T10:59:03;32.60;;;23.95;;
70150;SDS011;57517;43.562;19.540;2022-12-07T11:01:42;25.65;;;18.40;;
70150;SDS011;57517;43.562;19.540;2022-12-07T11:04:21;24.30;;;19.20;;
70150;SDS011;57517;43.562;19.540;2022-12-07T11:07:06;24.92;;;19.20;;
70150;SDS011;57517;43.562;19.540;2022-12-07T11:17:46;24.88;;;17.45;;
70150;SDS011;57517;43.562;19.540;2022-12-07T11:20:37;26.17;;;19.48;;
70150;SDS011;57517;43.562;19.540;2022-12-07T11:36:24;29.63;;;24.13;;
70150;SDS011;57517;43.562;19.540;2022-12-07T11:39:06;34.85;;;28.08;;
70150;SDS011;57517;43.562;19.540;2022-12-07T11:41:39;36.15;;;28.83;;
70150;SDS011;57517;43.562;19.540;2022-12-07T11:44:20;38.03;;;33.90;;
70150;SDS011;57517;43.562;19.540;2022-12-07T11:46:54;35.90;;;29.02;;
70150;SDS011;57517;43.562;19.540;2022-12-07T11:49:44;34.47;;;27.30;;
70150;SDS011;57517;43.562;19.540;2022-12-07T11:54:56;28.15;;;22.40;;
70150;SDS011;57517;43.562;19.540;2022-12-07T11:57:36;30.08;;;21.05;;
70150;SDS011;57517;43.562;19.540;2022-12-07T12:00:12;29.20;;;21.75;;
70150;SDS011;57517;43.562;19.540;2022-12-07T12:02:49;24.97;;;18.20;;
70150;SDS011;57517;43.562;19.540;2022-12-07T12:05:25;23.67;;;17.73;;
70150;SDS011;57517;43.562;19.540;2022-12-07T12:07:59;21.88;;;16.15;;
70150;SDS011;57517;43.562;19.540;2022-12-07T12:13:24;28.30;;;22.40;;
70150;SDS011;57517;43.562;19.540;2022-12-07T12:16:12;29.52;;;22.20;;
70150;SDS011;57517;43.562;19.540;2022-12-07T12:22:00;32.28;;;26.58;;
70150;SDS011;57517;43.562;19.540;2022-12-07T12:24:52;35.40;;;24.95;;
70150;SDS011;57517;43.562;19.540;2022-12-07T12:27:21;34.25;;;24.50;;
70150;SDS011;57517;43.562;19.540;2022-12-07T12:29:55;30.40;;;22.67;;
70150;SDS011;57517;43.562;19.540;2022-12-07T12:32:31;26.88;;;20.20;;
70150;SDS011;57517;43.562;19.540;2022-12-07T12:37:49;23.17;;;18.95;;
70150;SDS011;57517;43.562;19.540;2022-12-07T12:42:50;27.10;;;19.40;;
70150;SDS011;57517;43.562;19.540;2022-12-07T12:45:28;31.40;;;23.65;;
70150;SDS011;57517;43.562;19.540;2022-12-07T12:47:56;25.05;;;19.30;;
70150;SDS011;57517;43.562;19.540;2022-12-07T12:50:41;27.25;;;20.17;;
70150;SDS011;57517;43.562;19.540;2022-12-07T12:58:35;26.17;;;21.00;;
70150;SDS011;57517;43.562;19.540;2022-12-07T13:01:32;23.60;;;17.92;;
70150;SDS011;57517;43.562;19.540;2022-12-07T13:03:57;30.23;;;22.05;;
70150;SDS011;57517;43.562;19.540;2022-12-07T13:08:49;24.27;;;19.67;;
70150;SDS011;57517;43.562;19.540;2022-12-07T13:11:17;35.72;;;26.70;;
70150;SDS011;57517;43.562;19.540;2022-12-07T13:13:50;27.83;;;20.48;;
70150;SDS011;57517;43.562;19.540;2022-12-07T13:18:42;41.75;;;32.83;;
70150;SDS011;57517;43.562;19.540;2022-12-07T13:23:37;31.42;;;24.27;;
70150;SDS011;57517;43.562;19.540;2022-12-07T13:26:17;25.60;;;19.02;;
70150;SDS011;57517;43.562;19.540;2022-12-07T13:29:07;35.20;;;27.40;;
70150;SDS011;57517;43.562;19.540;2022-12-07T13:31:39;24.20;;;17.65;;
70150;SDS011;57517;43.562;19.540;2022-12-07T13:34:26;38.38;;;27.75;;
70150;SDS011;57517;43.562;19.540;2022-12-07T13:37:12;37.88;;;31.20;;
70150;SDS011;57517;43.562;19.540;2022-12-07T13:39:46;35.13;;;28.48;;
70150;SDS011;57517;43.562;19.540;2022-12-07T13:45:00;30.13;;;23.00;;
70150;SDS011;57517;43.562;19.540;2022-12-07T13:47:49;21.75;;;16.92;;
70150;SDS011;57517;43.562;19.540;2022-12-07T13:50:26;23.73;;;17.42;;
70150;SDS011;57517;43.562;19.540;2022-12-07T13:52:57;25.92;;;18.63;;
70150;SDS011;57517;43.562;19.540;2022-12-07T13:55:24;21.23;;;16.33;;
70150;SDS011;57517;43.562;19.540;2022-12-07T13:57:52;19.67;;;15.90;;
70150;SDS011;57517;43.562;19.540;2022-12-07T14:00:20;20.77;;;15.13;;
70150;SDS011;57517;43.562;19.540;2022-12-07T14:02:58;15.60;;;13.18;;
70150;SDS011;57517;43.562;19.540;2022-12-07T14:05:30;21.52;;;15.65;;
70150;SDS011;57517;43.562;19.540;2022-12-07T14:10:32;25.23;;;19.10;;
70150;SDS011;57517;43.562;19.540;2022-12-07T14:13:00;24.17;;;20.58;;
70150;SDS011;57517;43.562;19.540;2022-12-07T14:15:29;26.27;;;21.33;;
70150;SDS011;57517;43.562;19.540;2022-12-07T14:17:57;30.42;;;23.85;;
70150;SDS011;57517;43.562;19.540;2022-12-07T14:23:03;26.25;;;22.48;;
70150;SDS011;57517;43.562;19.540;2022-12-07T14:25:46;30.52;;;24.98;;
70150;SDS011;57517;43.562;19.540;2022-12-07T14:30:51;65.65;;;40.03;;
70150;SDS011;57517;43.562;19.540;2022-12-07T14:33:17;62.63;;;38.88;;
70150;SDS011;57517;43.562;19.540;2022-12-07T14:35:44;51.85;;;34.78;;
70150;SDS011;57517;43.562;19.540;2022-12-07T14:38:10;50.88;;;31.77;;
70150;SDS011;57517;43.562;19.540;2022-12-07T14:40:35;33.92;;;27.90;;
70150;SDS011;57517;43.562;19.540;2022-12-07T14:43:05;38.72;;;30.08;;
70150;SDS011;57517;43.562;19.540;2022-12-07T14:45:36;70.00;;;41.78;;
70150;SDS011;57517;43.562;19.540;2022-12-07T14:48:02;32.47;;;23.48;;
70150;SDS011;57517;43.562;19.540;2022-12-07T14:50:28;37.10;;;28.65;;
70150;SDS011;57517;43.562;19.540;2022-12-07T14:53:01;32.17;;;23.73;;
70150;SDS011;57517;43.562;19.540;2022-12-07T14:55:39;40.45;;;27.23;;
70150;SDS011;57517;43.562;19.540;2022-12-07T14:58:04;38.78;;;33.60;;
70150;SDS011;57517;43.562;19.540;2022-12-07T15:00:30;40.15;;;30.73;;
70150;SDS011;57517;43.562;19.540;2022-12-07T15:02:58;37.30;;;29.38;;
70150;SDS011;57517;43.562;19.540;2022-12-07T15:05:24;33.63;;;27.38;;
70150;SDS011;57517;43.562;19.540;2022-12-07T15:07:50;36.33;;;26.73;;
70150;SDS011;57517;43.562;19.540;2022-12-07T15:10:19;36.97;;;24.45;;
70150;SDS011;57517;43.562;19.540;2022-12-07T15:12:47;30.88;;;23.90;;
70150;SDS011;57517;43.562;19.540;2022-12-07T15:15:12;30.42;;;25.25;;
70150;SDS011;57517;43.562;19.540;2022-12-07T15:17:38;35.33;;;29.35;;
70150;SDS011;57517;43.562;19.540;2022-12-07T15:20:05;45.05;;;34.83;;
70150;SDS011;57517;43.562;19.540;2022-12-07T15:22:33;38.78;;;33.83;;
70150;SDS011;57517;43.562;19.540;2022-12-07T15:24:58;42.25;;;35.60;;
70150;SDS011;57517;43.562;19.540;2022-12-07T15:27:24;42.63;;;34.78;;
70150;SDS011;57517;43.562;19.540;2022-12-07T15:29:50;52.17;;;43.85;;
70150;SDS011;57517;43.562;19.540;2022-12-07T15:32:16;57.42;;;47.38;;
70150;SDS011;57517;43.562;19.540;2022-12-07T15:34:42;56.50;;;46.10;;
70150;SDS011;57517;43.562;19.540;2022-12-07T15:37:08;56.25;;;45.92;;
70150;SDS011;57517;43.562;19.540;2022-12-07T15:39:33;50.97;;;44.28;;
70150;SDS011;57517;43.562;19.540;2022-12-07T15:42:01;50.85;;;42.83;;
70150;SDS011;57517;43.562;19.540;2022-12-07T15:44:27;68.22;;;60.90;;
70150;SDS011;57517;43.562;19.540;2022-12-07T15:47:11;68.53;;;57.17;;
70150;SDS011;57517;43.562;19.540;2022-12-07T15:49:37;71.43;;;63.22;;
70150;SDS011;57517;43.562;19.540;2022-12-07T15:52:02;56.72;;;45.33;;
70150;SDS011;57517;43.562;19.540;2022-12-07T15:54:29;76.20;;;61.97;;
70150;SDS011;57517;43.562;19.540;2022-12-07T15:56:55;67.88;;;58.95;;
70150;SDS011;57517;43.562;19.540;2022-12-07T15:59:21;60.58;;;50.03;;
70150;SDS011;57517;43.562;19.540;2022-12-07T16:01:47;96.22;;;80.75;;
70150;SDS011;57517;43.562;19.540;2022-12-07T16:04:13;66.30;;;51.65;;
70150;SDS011;57517;43.562;19.540;2022-12-07T16:06:39;49.45;;;41.35;;
70150;SDS011;57517;43.562;19.540;2022-12-07T16:09:05;53.30;;;40.85;;
70150;SDS011;57517;43.562;19.540;2022-12-07T16:11:31;63.80;;;52.05;;
70150;SDS011;57517;43.562;19.540;2022-12-07T16:13:57;65.70;;;53.10;;